createdAt,value
2018-03-26T00:01:18.073Z,68.02
2018-03-26T00:03:47.239Z,68.05
2018-03-26T00:06:17.299Z,68.03
2018-03-26T00:08:46.591Z,68.00
2018-03-26T00:11:15.779Z,68.00
2018-03-26T00:13:44.951Z,68.03
2018-03-26T00:16:13.344Z,67.70
2018-03-26T00:18:41.739Z,67.64
2018-03-26T00:21:11.345Z,67.74
2018-03-26T00:23:39.737Z,67.85
2018-03-26T00:26:08.915Z,68.22
2018-03-26T00:28:37.300Z,67.84
2018-03-26T00:31:05.679Z,67.13
2018-03-26T00:33:34.071Z,67.20
2018-03-26T00:36:02.513Z,67.15
2018-03-26T00:38:30.981Z,66.45
2018-03-26T00:40:59.385Z,66.08
2018-03-26T00:43:27.772Z,66.67
2018-03-26T00:45:56.174Z,66.43
2018-03-26T00:48:25.235Z,66.05
2018-03-26T00:50:53.657Z,65.78
2018-03-26T00:53:40.513Z,66.21
2018-03-26T00:56:08.899Z,65.28
2018-03-26T00:58:37.334Z,65.05
2018-03-26T01:01:05.735Z,65.57
2018-03-26T01:03:34.892Z,65.97
2018-03-26T01:06:03.267Z,66.34
2018-03-26T01:08:31.657Z,66.21
2018-03-26T01:11:00.043Z,66.78
2018-03-26T01:13:28.509Z,66.39
2018-03-26T01:15:56.914Z,66.93
2018-03-26T01:18:25.388Z,67.08
2018-03-26T01:20:53.817Z,66.99
2018-03-26T01:23:22.195Z,67.18
2018-03-26T01:25:51.603Z,67.17
2018-03-26T01:28:20.023Z,66.87
2018-03-26T01:30:48.414Z,67.04
2018-03-26T01:33:17.620Z,67.87
2018-03-26T01:35:46.005Z,67.80
2018-03-26T01:38:14.496Z,68.53
2018-03-26T01:40:43.086Z,68.56
2018-03-26T01:43:11.507Z,69.19
2018-03-26T01:45:39.911Z,69.35
2018-03-26T01:48:09.051Z,69.11
2018-03-26T01:50:37.500Z,69.59
2018-03-26T01:53:05.876Z,69.39
2018-03-26T01:55:34.298Z,70.09
2018-03-26T01:58:03.580Z,70.43
2018-03-26T02:00:32.106Z,70.96
2018-03-26T02:03:00.507Z,70.86
2018-03-26T02:05:29.007Z,71.26
2018-03-26T02:07:57.403Z,71.59
2018-03-26T02:10:25.830Z,71.92
2018-03-26T02:12:55.005Z,72.59
2018-03-26T02:15:23.404Z,72.11
2018-03-26T02:17:52.573Z,73.31
2018-03-26T02:20:21.060Z,72.96
2018-03-26T02:22:49.598Z,73.52
2018-03-26T02:25:17.975Z,73.75
2018-03-26T02:27:46.372Z,74.92
2018-03-26T02:30:14.987Z,74.75
2018-03-26T02:32:44.180Z,74.79
2018-03-26T02:35:12.602Z,75.62
2018-03-26T02:37:41.781Z,75.54
2018-03-26T02:40:10.589Z,75.59
2018-03-26T02:42:39.744Z,75.93
2018-03-26T02:45:10.443Z,76.05
2018-03-26T02:47:38.843Z,76.15
2018-03-26T02:50:07.333Z,76.54
2018-03-26T02:52:35.722Z,77.11
2018-03-26T02:55:04.150Z,77.22
2018-03-26T02:57:32.565Z,77.25
2018-03-26T03:00:01.123Z,77.46
2018-03-26T03:02:30.296Z,77.14
2018-03-26T03:04:58.681Z,77.01
2018-03-26T03:07:27.791Z,77.64
2018-03-26T03:09:56.966Z,77.90
2018-03-26T03:12:25.350Z,77.96
2018-03-26T03:14:53.731Z,78.45
2018-03-26T03:17:22.107Z,78.24
2018-03-26T03:19:50.691Z,78.22
2018-03-26T03:22:19.089Z,78.57
2018-03-26T03:24:47.500Z,78.05
2018-03-26T03:27:16.687Z,78.67
2018-03-26T03:29:45.059Z,78.13
2018-03-26T03:32:14.241Z,78.40
2018-03-26T03:34:42.627Z,78.59
2018-03-26T03:37:11.167Z,78.38
2018-03-26T03:39:39.566Z,78.73
2018-03-26T03:42:07.945Z,78.46
2018-03-26T03:44:36.411Z,78.17
2018-03-26T03:47:04.810Z,78.01
2018-03-26T03:49:33.275Z,77.76
2018-03-26T03:52:01.674Z,78.30
2018-03-26T03:54:30.157Z,78.03
2018-03-26T03:56:58.655Z,78.45
2018-03-26T03:59:27.066Z,78.21
2018-03-26T04:01:55.494Z,77.83
2018-03-26T04:04:24.083Z,78.59
2018-03-26T04:06:52.493Z,77.84
2018-03-26T04:09:20.894Z,77.85
2018-03-26T04:11:49.275Z,78.00
2018-03-26T04:14:18.280Z,77.82
2018-03-26T04:16:47.418Z,78.13
2018-03-26T04:19:15.853Z,78.18
2018-03-26T04:21:44.995Z,78.43
2018-03-26T04:24:13.402Z,78.84
2018-03-26T04:26:41.784Z,78.83
2018-03-26T04:29:10.222Z,78.83
2018-03-26T04:31:38.620Z,78.84
2018-03-26T04:34:07.174Z,78.87
2018-03-26T04:36:36.453Z,78.53
2018-03-26T04:39:04.803Z,78.44
2018-03-26T04:41:33.174Z,78.77
2018-03-26T04:44:01.544Z,79.05
2018-03-26T04:46:30.243Z,78.95
2018-03-26T04:48:58.647Z,78.27
2018-03-26T04:51:27.110Z,78.64
2018-03-26T04:53:55.580Z,79.14
2018-03-26T04:56:24.068Z,78.67
2018-03-26T04:58:52.520Z,78.65
2018-03-26T05:01:21.689Z,79.02
2018-03-26T05:03:50.199Z,78.87
2018-03-26T05:06:19.358Z,79.64
2018-03-26T05:08:47.758Z,79.44
2018-03-26T05:11:16.202Z,79.65
2018-03-26T05:13:44.587Z,80.03
2018-03-26T05:16:13.904Z,80.65
2018-03-26T05:18:42.515Z,80.96
2018-03-26T05:21:10.914Z,81.22
2018-03-26T05:23:40.065Z,81.76
2018-03-26T05:26:08.633Z,82.31
2018-03-26T05:28:37.023Z,82.50
2018-03-26T05:31:05.444Z,82.89
2018-03-26T05:33:33.834Z,83.04
2018-03-26T05:36:02.343Z,83.60
2018-03-26T05:38:30.734Z,83.97
2018-03-26T05:40:59.156Z,83.71
2018-03-26T05:43:27.527Z,84.64
2018-03-26T05:45:55.982Z,84.32
2018-03-26T05:48:24.407Z,84.95
2018-03-26T05:50:52.809Z,85.28
2018-03-26T05:53:21.966Z,85.32
2018-03-26T05:55:50.439Z,85.08
2018-03-26T05:58:19.138Z,85.31
2018-03-26T06:00:47.528Z,85.26
2018-03-26T06:03:15.929Z,85.15
2018-03-26T06:05:45.158Z,85.26
2018-03-26T06:08:14.310Z,85.01
2018-03-26T06:10:42.967Z,84.43
2018-03-26T06:13:11.502Z,84.12
2018-03-26T06:15:39.917Z,84.13
2018-03-26T06:18:09.106Z,83.87
2018-03-26T06:20:39.300Z,83.45
2018-03-26T06:23:07.815Z,82.96
2018-03-26T06:25:36.299Z,82.59
2018-03-26T06:28:05.482Z,81.79
2018-03-26T06:30:34.058Z,81.61
2018-03-26T06:33:02.451Z,80.77
2018-03-26T06:35:31.796Z,80.39
2018-03-26T06:41:09.218Z,80.34
2018-03-26T06:43:37.608Z,79.55
2018-03-26T06:46:06.047Z,79.95
2018-03-26T06:48:35.395Z,80.01
2018-03-26T06:51:03.762Z,79.50
2018-03-26T06:53:32.171Z,78.56
2018-03-26T06:56:00.717Z,78.62
2018-03-26T06:58:29.119Z,77.81
2018-03-26T07:00:57.527Z,77.56
2018-03-26T07:03:26.177Z,76.01
2018-03-26T07:05:54.781Z,75.70
2018-03-26T07:08:23.943Z,74.61
2018-03-26T07:10:52.319Z,72.38
2018-03-26T07:13:21.475Z,72.74
2018-03-26T07:15:49.902Z,72.41
2018-03-26T07:18:18.403Z,72.03
2018-03-26T07:20:48.891Z,71.82
2018-03-26T07:23:17.264Z,72.79
2018-03-26T07:25:45.644Z,75.01
2018-03-26T07:28:14.082Z,74.49
2018-03-26T07:30:43.322Z,74.33
2018-03-26T07:33:12.053Z,74.62
2018-03-26T07:35:41.314Z,75.27
2018-03-26T07:38:09.725Z,75.37
2018-03-26T07:40:38.239Z,75.38
2018-03-26T07:43:06.773Z,75.87
2018-03-26T07:48:03.023Z,75.60
2018-03-26T07:50:31.677Z,75.16
2018-03-26T07:53:10.736Z,74.25
2018-03-26T07:55:39.140Z,74.18
2018-03-26T07:58:07.600Z,73.65
2018-03-26T08:00:36.038Z,74.68
2018-03-26T08:03:04.408Z,74.67
2018-03-26T08:05:32.821Z,75.69
2018-03-26T08:08:02.005Z,76.22
2018-03-26T08:10:31.202Z,76.74
2018-03-26T08:13:00.351Z,75.76
2018-03-26T08:15:28.760Z,76.59
2018-03-26T08:17:57.138Z,75.64
2018-03-26T08:20:25.608Z,76.09
2018-03-26T08:22:54.019Z,74.58
2018-03-26T08:25:23.499Z,74.09
2018-03-26T08:27:51.878Z,73.78
2018-03-26T08:30:20.459Z,74.31
2018-03-26T08:32:49.031Z,73.71
2018-03-26T08:35:17.547Z,74.58
2018-03-26T08:37:45.945Z,73.14
2018-03-26T08:40:15.075Z,71.33
2018-03-26T08:42:43.511Z,69.77
2018-03-26T08:45:11.902Z,64.37
2018-03-26T08:47:40.443Z,61.23
2018-03-26T08:50:08.931Z,59.43
2018-03-26T08:52:37.244Z,61.92
2018-03-26T08:55:05.649Z,63.06
2018-03-26T08:57:35.619Z,60.06
2018-03-26T09:00:04.025Z,60.01
2018-03-26T09:02:32.883Z,58.57
2018-03-26T09:05:01.462Z,56.20
2018-03-26T09:07:29.841Z,55.73
2018-03-26T09:09:58.236Z,54.99
2018-03-26T09:12:27.539Z,49.98
2018-03-26T09:14:55.970Z,51.55
2018-03-26T09:17:25.268Z,51.54
2018-03-26T09:19:53.656Z,51.95
2018-03-26T09:22:22.834Z,46.78
2018-03-26T09:24:51.549Z,46.57
2018-03-26T09:27:20.839Z,43.99
2018-03-26T09:29:50.024Z,44.09
2018-03-26T09:32:18.665Z,44.27
2018-03-26T09:34:48.062Z,43.79
2018-03-26T09:37:17.255Z,43.53
2018-03-26T09:39:45.727Z,43.09
2018-03-26T09:42:14.900Z,43.82
2018-03-26T09:44:43.299Z,43.72
2018-03-26T09:47:11.720Z,41.97
2018-03-26T09:49:40.109Z,41.52
2018-03-26T09:52:08.535Z,43.11
2018-03-26T09:54:37.748Z,41.50
2018-03-26T09:57:06.288Z,44.06
2018-03-26T09:59:34.781Z,43.07
2018-03-26T10:02:03.982Z,41.63
2018-03-26T10:04:32.379Z,43.02
2018-03-26T10:07:00.900Z,40.46
2018-03-26T10:09:29.411Z,39.07
2018-03-26T10:11:58.604Z,39.79
2018-03-26T10:14:27.845Z,41.74
2018-03-26T10:16:56.261Z,40.99
2018-03-26T10:19:25.025Z,45.91
2018-03-26T10:21:53.620Z,48.44
2018-03-26T10:24:22.026Z,49.30
2018-03-26T10:26:51.247Z,48.15
2018-03-26T10:29:20.460Z,46.25
2018-03-26T10:31:49.695Z,44.44
2018-03-26T10:34:18.120Z,43.64
2018-03-26T10:36:47.287Z,39.22
2018-03-26T10:39:15.683Z,38.95
2018-03-26T10:41:44.108Z,39.25
2018-03-26T10:44:12.611Z,38.73
2018-03-26T10:46:41.892Z,38.30
2018-03-26T10:49:10.311Z,35.98
2018-03-26T10:51:38.705Z,35.78
2018-03-26T10:54:07.449Z,36.03
2018-03-26T10:56:35.823Z,38.33
2018-03-26T10:59:04.406Z,38.69
2018-03-26T11:01:33.103Z,38.48
2018-03-26T11:04:01.504Z,39.75
2018-03-26T11:06:29.913Z,43.35
2018-03-26T11:08:58.298Z,44.75
2018-03-26T11:11:26.679Z,43.12
2018-03-26T11:13:55.121Z,41.50
2018-03-26T11:16:23.516Z,40.00
2018-03-26T11:18:51.981Z,38.35
2018-03-26T11:21:20.376Z,37.49
2018-03-26T11:23:48.778Z,40.41
2018-03-26T11:26:17.190Z,36.91
2018-03-26T11:28:46.384Z,37.03
2018-03-26T11:31:15.538Z,37.57
2018-03-26T11:33:43.952Z,37.62
2018-03-26T11:36:13.186Z,39.04
2018-03-26T11:38:41.541Z,39.58
2018-03-26T11:41:10.778Z,37.46
2018-03-26T11:43:39.249Z,37.71
2018-03-26T11:46:08.432Z,36.82
2018-03-26T11:48:37.734Z,37.42
2018-03-26T11:51:06.998Z,39.54
2018-03-26T11:53:35.427Z,38.99
2018-03-26T11:56:03.899Z,39.30
2018-03-26T11:58:33.113Z,39.82
2018-03-26T12:01:02.488Z,38.46
2018-03-26T12:03:31.682Z,39.24
2018-03-26T12:06:00.088Z,39.32
2018-03-26T12:08:29.295Z,40.62
2018-03-26T12:10:57.729Z,40.29
2018-03-26T12:13:27.016Z,39.48
2018-03-26T12:15:55.607Z,39.84
2018-03-26T12:18:24.020Z,41.15
2018-03-26T12:21:02.065Z,38.87
2018-03-26T12:23:48.073Z,38.42
2018-03-26T12:26:16.571Z,37.20
2018-03-26T12:29:03.465Z,37.82
2018-03-26T12:31:31.868Z,40.10
2018-03-26T12:34:18.080Z,39.71
2018-03-26T12:36:46.516Z,40.35
2018-03-26T12:39:16.459Z,40.78
2018-03-26T12:41:44.865Z,41.52
2018-03-26T12:44:13.263Z,40.86
2018-03-26T12:46:43.404Z,40.00
2018-03-26T12:49:12.588Z,38.88
2018-03-26T12:51:58.626Z,39.58
2018-03-26T12:54:27.133Z,39.06
2018-03-26T12:57:13.052Z,39.46
2018-03-26T12:59:41.587Z,40.05
2018-03-26T13:02:23.803Z,38.58
2018-03-26T13:04:52.260Z,39.51
2018-03-26T13:07:20.659Z,39.76
2018-03-26T13:09:49.403Z,40.94
2018-03-26T13:12:17.802Z,41.91
2018-03-26T13:14:46.985Z,40.14
2018-03-26T13:17:16.183Z,41.04
2018-03-26T13:19:44.762Z,41.04
2018-03-26T13:22:14.422Z,41.78
2018-03-26T13:24:42.812Z,41.19
2018-03-26T13:27:11.221Z,42.85
2018-03-26T13:29:39.637Z,42.77
2018-03-26T13:32:08.816Z,43.44
2018-03-26T13:34:37.278Z,43.19
2018-03-26T13:37:05.793Z,40.44
2018-03-26T13:39:34.222Z,41.17
2018-03-26T13:42:03.681Z,39.93
2018-03-26T13:44:32.876Z,40.22
2018-03-26T13:47:01.283Z,40.51
2018-03-26T13:49:29.694Z,41.09
2018-03-26T13:51:58.137Z,39.40
2018-03-26T13:54:27.499Z,38.85
2018-03-26T13:56:55.972Z,38.10
2018-03-26T13:59:24.508Z,38.44
2018-03-26T14:01:53.659Z,37.44
2018-03-26T14:04:22.047Z,37.99
2018-03-26T14:06:50.484Z,38.33
2018-03-26T14:09:37.436Z,38.50
2018-03-26T14:12:23.565Z,38.36
2018-03-26T14:18:08.079Z,39.44
2018-03-26T14:20:37.252Z,40.08
2018-03-26T14:23:05.630Z,39.34
2018-03-26T14:25:34.035Z,39.16
2018-03-26T14:28:03.382Z,39.53
2018-03-26T14:30:31.865Z,39.82
2018-03-26T14:33:00.260Z,40.56
2018-03-26T14:35:43.559Z,38.25
2018-03-26T14:38:12.056Z,37.44
2018-03-26T14:40:40.534Z,35.51
2018-03-26T14:43:09.086Z,36.45
2018-03-26T14:45:38.311Z,35.85
2018-03-26T14:48:06.941Z,36.63
2018-03-26T14:50:35.638Z,35.90
2018-03-26T14:53:04.018Z,36.84
2018-03-26T14:55:32.399Z,36.69
2018-03-26T14:58:00.817Z,35.88
2018-03-26T15:00:29.415Z,37.34
2018-03-26T15:02:57.839Z,37.20
2018-03-26T15:05:26.243Z,37.09
2018-03-26T15:07:55.432Z,37.26
2018-03-26T15:10:23.883Z,38.64
2018-03-26T15:12:52.304Z,39.13
2018-03-26T15:15:21.740Z,40.83
2018-03-26T15:17:50.294Z,39.98
2018-03-26T15:20:19.494Z,39.28
2018-03-26T15:22:47.873Z,38.08
2018-03-26T15:25:16.432Z,38.08
2018-03-26T15:27:44.835Z,36.69
2018-03-26T15:30:14.159Z,37.44
2018-03-26T15:32:43.451Z,36.14
2018-03-26T15:35:12.848Z,37.90
2018-03-26T15:37:42.160Z,37.09
2018-03-26T15:40:10.626Z,37.23
2018-03-26T15:42:46.019Z,38.04
2018-03-26T15:45:14.418Z,36.46
2018-03-26T15:47:42.870Z,36.64
2018-03-26T15:50:14.842Z,36.74
2018-03-26T15:52:43.277Z,38.87
2018-03-26T15:55:11.069Z,37.91
2018-03-26T15:57:40.229Z,39.66
2018-03-26T16:00:08.678Z,40.15
2018-03-26T16:02:42.430Z,40.64
2018-03-26T16:05:11.031Z,41.67
2018-03-26T16:07:40.179Z,42.71
2018-03-26T16:10:08.770Z,42.10
2018-03-26T16:12:37.452Z,43.23
2018-03-26T16:15:05.864Z,42.36
2018-03-26T16:17:34.358Z,42.79
2018-03-26T16:20:02.843Z,42.54
2018-03-26T16:22:31.329Z,42.13
2018-03-26T16:24:59.936Z,42.61
2018-03-26T16:27:28.336Z,42.72
2018-03-26T16:29:56.753Z,42.45
2018-03-26T16:32:25.151Z,43.29
2018-03-26T16:34:53.970Z,42.19
2018-03-26T16:37:23.195Z,43.40
2018-03-26T16:39:51.596Z,41.76
2018-03-26T16:42:28.408Z,41.80
2018-03-26T16:44:56.808Z,41.96
2018-03-26T16:47:25.999Z,42.87
2018-03-26T16:49:55.186Z,43.08
2018-03-26T16:52:23.611Z,42.67
2018-03-26T16:54:52.037Z,42.24
2018-03-26T16:57:20.466Z,42.41
2018-03-26T16:59:48.858Z,43.51
2018-03-26T17:02:17.314Z,45.31
2018-03-26T17:04:46.470Z,44.44
2018-03-26T17:07:14.937Z,46.08
2018-03-26T17:09:43.369Z,45.86
2018-03-26T17:12:11.775Z,46.61
2018-03-26T17:14:50.309Z,46.14
2018-03-26T17:17:19.303Z,47.45
2018-03-26T17:19:47.833Z,47.93
2018-03-26T17:22:17.054Z,47.94
2018-03-26T17:24:45.475Z,48.70
2018-03-26T17:27:13.920Z,48.41
2018-03-26T17:29:42.327Z,49.04
2018-03-26T17:32:10.723Z,48.64
2018-03-26T17:34:39.192Z,48.46
2018-03-26T17:37:08.343Z,48.28
2018-03-26T17:39:36.764Z,49.48
2018-03-26T17:42:05.983Z,48.84
2018-03-26T17:44:34.480Z,49.18
2018-03-26T17:47:02.925Z,49.25
2018-03-26T17:49:32.088Z,49.84
2018-03-26T17:52:00.609Z,49.77
2018-03-26T17:54:29.935Z,50.49
2018-03-26T17:56:58.375Z,50.29
2018-03-26T17:59:26.776Z,50.18
2018-03-26T18:01:55.941Z,51.00
2018-03-26T18:04:24.351Z,51.36
2018-03-26T18:06:53.546Z,51.40
2018-03-26T18:09:22.786Z,51.93
2018-03-26T18:11:51.444Z,51.56
2018-03-26T18:14:20.625Z,50.67
2018-03-26T18:16:50.077Z,50.73
2018-03-26T18:19:18.527Z,50.99
2018-03-26T18:21:46.915Z,51.75
2018-03-26T18:24:15.436Z,52.63
2018-03-26T18:26:44.644Z,52.41
2018-03-26T18:29:13.111Z,52.57
2018-03-26T18:31:41.701Z,51.63
2018-03-26T18:34:10.125Z,51.83
2018-03-26T18:36:38.620Z,52.35
2018-03-26T18:39:07.811Z,52.76
2018-03-26T18:41:36.239Z,48.46
2018-03-26T18:44:04.623Z,49.85
2018-03-26T18:46:33.111Z,48.66
2018-03-26T18:49:01.555Z,48.30
2018-03-26T18:51:30.818Z,47.33
2018-03-26T18:53:59.252Z,47.85
2018-03-26T18:56:27.627Z,48.57
2018-03-26T18:58:56.285Z,48.49
2018-03-26T19:01:24.677Z,49.20
2018-03-26T19:03:53.847Z,50.16
2018-03-26T19:06:22.244Z,50.08
2018-03-26T19:08:50.711Z,51.31
2018-03-26T19:11:19.168Z,52.04
2018-03-26T19:13:47.528Z,51.91
2018-03-26T19:16:15.944Z,51.95
2018-03-26T19:18:44.348Z,52.13
2018-03-26T19:21:12.760Z,52.04
2018-03-26T19:23:41.216Z,51.96
2018-03-26T19:26:09.831Z,52.10
2018-03-26T19:28:38.291Z,51.80
2018-03-26T19:31:06.712Z,51.73
2018-03-26T19:33:35.236Z,52.45
2018-03-26T19:36:04.555Z,52.33
2018-03-26T19:38:33.015Z,52.85
2018-03-26T19:41:01.466Z,52.81
2018-03-26T19:43:35.948Z,53.08
2018-03-26T19:46:04.368Z,53.25
2018-03-26T19:48:39.067Z,52.70
2018-03-26T19:51:11.946Z,52.99
2018-03-26T19:53:41.246Z,54.15
2018-03-26T19:56:10.399Z,58.10
2018-03-26T19:58:38.850Z,58.93
2018-03-26T20:01:07.331Z,60.90
2018-03-26T20:03:35.743Z,63.87
2018-03-26T20:06:04.155Z,65.93
2018-03-26T20:08:32.782Z,67.51
2018-03-26T20:11:01.178Z,66.82
2018-03-26T20:13:29.703Z,67.41
2018-03-26T20:15:58.143Z,67.52
2018-03-26T20:18:26.555Z,68.15
2018-03-26T20:20:54.956Z,69.70
2018-03-26T20:23:23.407Z,70.25
2018-03-26T20:25:51.794Z,70.48
2018-03-26T20:28:20.188Z,70.38
2018-03-26T20:30:48.646Z,71.70
2018-03-26T20:33:17.157Z,72.44
2018-03-26T20:35:45.613Z,72.12
2018-03-26T20:38:14.140Z,70.97
2018-03-26T20:40:42.474Z,71.15
2018-03-26T20:43:10.856Z,71.97
2018-03-26T20:45:39.238Z,70.48
2018-03-26T20:48:07.619Z,69.98
2018-03-26T20:50:36.101Z,70.45
2018-03-26T20:53:06.534Z,70.80
2018-03-26T20:55:35.109Z,69.27
2018-03-26T20:58:03.527Z,68.23
2018-03-26T21:00:31.934Z,67.14
2018-03-26T21:03:00.491Z,67.35
2018-03-26T21:05:28.903Z,68.82
2018-03-26T21:07:58.228Z,67.22
2018-03-26T21:10:27.406Z,67.77
2018-03-26T21:12:55.819Z,68.44
2018-03-26T21:15:24.183Z,70.08
2018-03-26T21:17:52.663Z,71.13
2018-03-26T21:20:21.842Z,70.51
2018-03-26T21:22:50.300Z,71.45
2018-03-26T21:25:18.750Z,73.02
2018-03-26T21:27:47.152Z,72.26
2018-03-26T21:30:15.546Z,72.25
2018-03-26T21:32:43.959Z,71.31
2018-03-26T21:35:12.711Z,72.03
2018-03-26T21:37:41.249Z,72.28
2018-03-26T21:40:09.708Z,71.64
2018-03-26T21:42:38.120Z,72.06
2018-03-26T21:45:06.552Z,72.97
2018-03-26T21:47:35.016Z,73.22
2018-03-26T21:50:03.703Z,74.07
2018-03-26T21:52:32.111Z,74.65
2018-03-26T21:55:00.585Z,74.62
2018-03-26T21:57:29.111Z,75.44
2018-03-26T21:59:58.306Z,76.10
2018-03-26T22:02:26.714Z,76.80
2018-03-26T22:04:55.270Z,77.71
2018-03-26T22:07:23.817Z,78.10
2018-03-26T22:09:52.200Z,78.23
2018-03-26T22:12:20.603Z,78.93
2018-03-26T22:14:49.141Z,79.32
2018-03-26T22:17:17.655Z,77.40
2018-03-26T22:19:46.090Z,75.78
2018-03-26T22:22:14.463Z,75.22
2018-03-26T22:24:43.611Z,75.17
2018-03-26T22:27:11.993Z,75.32
2018-03-26T22:29:42.366Z,75.98
2018-03-26T22:32:11.535Z,75.75
2018-03-26T22:34:39.935Z,76.62
2018-03-26T22:37:08.486Z,76.54
2018-03-26T22:39:36.949Z,77.33
2018-03-26T22:42:06.263Z,77.66
2018-03-26T22:44:34.655Z,78.38
2018-03-26T22:47:03.019Z,78.62
2018-03-26T22:49:31.475Z,78.54
2018-03-26T22:51:59.879Z,79.19
2018-03-26T22:54:31.568Z,79.91
2018-03-26T22:56:59.980Z,79.79
2018-03-26T22:59:29.214Z,78.95
2018-03-26T23:01:57.596Z,79.12
2018-03-26T23:04:26.286Z,78.41
2018-03-26T23:06:54.663Z,77.95
2018-03-26T23:09:23.048Z,77.25
2018-03-26T23:11:51.432Z,78.29
2018-03-26T23:14:24.048Z,78.28
2018-03-26T23:16:52.445Z,78.62
2018-03-26T23:19:20.847Z,79.10
2018-03-26T23:21:49.973Z,77.76
2018-03-26T23:24:18.353Z,78.15
2018-03-26T23:26:46.765Z,79.00
2018-03-26T23:29:15.144Z,79.76
2018-03-26T23:31:43.600Z,80.22
2018-03-26T23:34:11.980Z,80.56
2018-03-26T23:36:40.416Z,81.21
2018-03-26T23:39:08.803Z,80.82
2018-03-26T23:41:37.316Z,80.70
2018-03-26T23:44:05.744Z,81.10
2018-03-26T23:46:34.110Z,81.92
2018-03-26T23:49:02.565Z,81.70
2018-03-26T23:51:30.993Z,82.00
2018-03-26T23:53:59.580Z,82.29
2018-03-26T23:56:27.970Z,81.89
2018-03-26T23:58:56.356Z,82.04
